createdAt,value
2016-06-07T00:00:10.710Z,0
2016-06-07T00:01:10.697Z,0
2016-06-07T00:02:10.669Z,0
2016-06-07T00:03:10.672Z,0
2016-06-07T00:04:10.642Z,0
2016-06-07T00:05:10.630Z,0
2016-06-07T00:06:10.648Z,0
2016-06-07T00:07:10.604Z,0
2016-06-07T00:08:10.574Z,0
2016-06-07T00:09:10.562Z,0
2016-06-07T00:10:10.565Z,0
2016-06-07T00:11:10.380Z,0
2016-06-07T00:12:10.368Z,0
2016-06-07T00:13:10.526Z,0
2016-06-07T00:14:10.497Z,0
2016-06-07T00:15:10.484Z,0
2016-06-07T00:16:10.456Z,0
2016-06-07T00:17:10.459Z,0
2016-06-07T00:18:10.430Z,0
2016-06-07T00:19:10.401Z,0
2016-06-07T00:20:10.248Z,0
2016-06-07T00:21:10.860Z,0
2016-06-07T00:22:10.363Z,0
2016-06-07T00:23:10.350Z,0
2016-06-07T00:24:10.336Z,0
2016-06-07T00:25:10.324Z,0
2016-06-07T00:26:10.311Z,0
2016-06-07T00:27:10.282Z,0
2016-06-07T00:28:10.270Z,0
2016-06-07T00:29:10.257Z,0
2016-06-07T00:30:10.244Z,0
2016-06-07T00:31:10.230Z,0
2016-06-07T00:32:10.218Z,0
2016-06-07T00:33:10.189Z,0
2016-06-07T00:34:10.177Z,0
2016-06-07T00:35:10.022Z,0
2016-06-07T00:36:10.150Z,0
2016-06-07T00:37:10.137Z,0
2016-06-07T00:38:10.125Z,0
2016-06-07T00:39:09.940Z,0
2016-06-07T00:40:10.082Z,0
2016-06-07T00:41:10.070Z,0
2016-06-07T00:42:10.057Z,0
2016-06-07T00:43:09.888Z,0
2016-06-07T00:44:10.015Z,0
2016-06-07T00:45:09.878Z,0
2016-06-07T00:46:09.990Z,0
2016-06-07T00:47:09.993Z,0
2016-06-07T00:48:09.964Z,0
2016-06-07T00:49:09.935Z,0
2016-06-07T00:50:09.937Z,0
2016-06-07T00:51:09.815Z,0
2016-06-07T00:52:09.897Z,0
2016-06-07T00:53:09.884Z,0
2016-06-07T00:54:09.870Z,0
2016-06-07T00:55:09.858Z,0
2016-06-07T00:56:09.829Z,0
2016-06-07T00:57:09.817Z,0
2016-06-07T00:58:09.819Z,0
2016-06-07T00:59:09.791Z,0
2016-06-07T01:00:09.778Z,0
2016-06-07T01:01:09.764Z,0
2016-06-07T01:02:09.752Z,0
2016-06-07T01:03:09.567Z,0
2016-06-07T01:04:09.710Z,0
2016-06-07T01:05:09.697Z,0
2016-06-07T01:06:09.434Z,0
2016-06-07T01:07:09.733Z,0
2016-06-07T01:08:09.658Z,0
2016-06-07T01:09:09.630Z,0
2016-06-07T01:10:09.461Z,0
2016-06-07T01:11:09.604Z,0
2016-06-07T01:12:09.590Z,0
2016-06-07T01:13:09.421Z,0
2016-06-07T01:14:09.565Z,0
2016-06-07T01:15:09.537Z,0
2016-06-07T01:16:09.523Z,0
2016-06-07T01:17:09.510Z,0
2016-06-07T01:18:09.498Z,0
2016-06-07T01:19:09.484Z,0
2016-06-07T01:20:09.456Z,0
2016-06-07T01:21:09.537Z,0
2016-06-07T01:22:09.728Z,0
2016-06-07T01:23:09.417Z,0
2016-06-07T01:24:09.404Z,0
2016-06-07T01:25:09.375Z,0
2016-06-07T01:26:09.364Z,0
2016-06-07T01:27:09.366Z,0
2016-06-07T01:28:09.353Z,0
2016-06-07T01:29:09.308Z,0
2016-06-07T01:30:09.311Z,0
2016-06-07T01:31:09.283Z,0
2016-06-07T01:32:09.270Z,0
2016-06-07T01:33:09.257Z,0
2016-06-07T01:34:09.244Z,0
2016-06-07T01:35:09.230Z,0
2016-06-07T01:36:09.062Z,0
2016-06-07T01:37:09.408Z,0
2016-06-07T01:38:09.192Z,0
2016-06-07T01:39:09.163Z,0
2016-06-07T01:40:09.151Z,0
2016-06-07T01:41:08.982Z,0
2016-06-07T01:42:09.110Z,0
2016-06-07T01:43:09.096Z,0
2016-06-07T01:44:09.082Z,0
2016-06-07T01:45:09.070Z,0
2016-06-07T01:46:09.057Z,0
2016-06-07T01:47:09.044Z,0
2016-06-07T01:48:09.019Z,0
2016-06-07T01:49:09.022Z,0
2016-06-07T01:50:09.023Z,0
2016-06-07T01:51:09.479Z,0
2016-06-07T01:52:09.402Z,0
2016-06-07T01:53:09.027Z,0
2016-06-07T01:54:09.020Z,0
2016-06-07T01:55:09.012Z,0
2016-06-07T01:56:08.990Z,0
2016-06-07T01:57:09.012Z,0
2016-06-07T01:58:08.958Z,0
2016-06-07T01:59:08.962Z,0
2016-06-07T02:00:08.935Z,0
2016-06-07T02:01:08.924Z,0
2016-06-07T02:02:08.913Z,0
2016-06-07T02:03:08.886Z,0
2016-06-07T02:04:08.874Z,0
2016-06-07T02:05:08.878Z,0
2016-06-07T02:06:09.038Z,0
2016-06-07T02:07:09.369Z,0
2016-06-07T02:08:08.826Z,0
2016-06-07T02:09:08.813Z,0
2016-06-07T02:10:08.785Z,0
2016-06-07T02:11:08.771Z,0
2016-06-07T02:12:08.760Z,0
2016-06-07T02:13:08.747Z,0
2016-06-07T02:14:08.735Z,0
2016-06-07T02:15:08.721Z,0
2016-06-07T02:16:08.693Z,0
2016-06-07T02:17:08.695Z,0
2016-06-07T02:18:08.667Z,0
2016-06-07T02:19:08.654Z,0
2016-06-07T02:20:08.626Z,0
2016-06-07T02:21:09.409Z,0
2016-06-07T02:22:08.927Z,0
2016-06-07T02:23:08.587Z,0
2016-06-07T02:24:08.574Z,0
2016-06-07T02:25:08.560Z,0
2016-06-07T02:26:08.548Z,0
2016-06-07T02:27:08.520Z,0
2016-06-07T02:28:08.506Z,0
2016-06-07T02:29:08.493Z,0
2016-06-07T02:30:08.480Z,0
2016-06-07T02:31:08.451Z,0
2016-06-07T02:32:08.454Z,0
2016-06-07T02:33:08.457Z,0
2016-06-07T02:34:08.414Z,0
2016-06-07T02:35:08.384Z,0
2016-06-07T02:36:08.981Z,0
2016-06-07T02:37:09.686Z,0
2016-06-07T02:38:08.189Z,0
2016-06-07T02:39:08.333Z,0
2016-06-07T02:40:08.320Z,0
2016-06-07T02:41:08.307Z,0
2016-06-07T02:42:08.278Z,0
2016-06-07T02:43:08.266Z,0
2016-06-07T02:44:08.252Z,0
2016-06-07T02:45:08.255Z,0
2016-06-07T02:46:08.071Z,0
2016-06-07T02:47:08.213Z,0
2016-06-07T02:48:08.201Z,0
2016-06-07T02:49:08.171Z,0
2016-06-07T02:50:08.003Z,0
2016-06-07T02:51:09.038Z,0
2016-06-07T02:52:09.132Z,0
2016-06-07T02:53:08.136Z,0
2016-06-07T02:54:07.935Z,0
2016-06-07T02:55:08.079Z,0
2016-06-07T02:56:08.066Z,0
2016-06-07T02:57:08.053Z,0
2016-06-07T02:58:07.884Z,0
2016-06-07T02:59:08.012Z,0
2016-06-07T03:00:07.999Z,0
2016-06-07T03:01:07.986Z,0
2016-06-07T03:02:07.973Z,0
2016-06-07T03:03:07.975Z,0
2016-06-07T03:04:07.947Z,0
2016-06-07T03:05:07.934Z,0
2016-06-07T03:06:08.186Z,0
2016-06-07T03:07:08.752Z,0
2016-06-07T03:08:07.880Z,0
2016-06-07T03:09:07.851Z,0
2016-06-07T03:10:07.838Z,0
2016-06-07T03:11:07.669Z,0
2016-06-07T03:12:07.811Z,0
2016-06-07T03:13:07.799Z,0
2016-06-07T03:14:07.786Z,0
2016-06-07T03:15:07.616Z,0
2016-06-07T03:16:07.760Z,0
2016-06-07T03:17:07.732Z,0
2016-06-07T03:18:07.719Z,0
2016-06-07T03:19:07.691Z,0
2016-06-07T03:20:07.677Z,0
2016-06-07T03:21:07.868Z,0
2016-06-07T03:22:08.152Z,0
2016-06-07T03:23:07.638Z,0
2016-06-07T03:24:07.626Z,0
2016-06-07T03:25:07.597Z,0
2016-06-07T03:26:07.429Z,0
2016-06-07T03:27:07.415Z,0
2016-06-07T03:28:07.559Z,0
2016-06-07T03:29:07.545Z,0
2016-06-07T03:30:07.517Z,0
2016-06-07T03:31:07.520Z,0
2016-06-07T03:32:07.491Z,0
2016-06-07T03:33:07.478Z,0
2016-06-07T03:34:07.465Z,0
2016-06-07T03:35:07.452Z,0
2016-06-07T03:36:07.767Z,0
2016-06-07T03:37:07.567Z,0
2016-06-07T03:38:07.397Z,0
2016-06-07T03:39:07.384Z,0
2016-06-07T03:40:07.372Z,0
2016-06-07T03:41:07.203Z,0
2016-06-07T03:42:07.330Z,0
2016-06-07T03:43:07.317Z,0
2016-06-07T03:44:07.305Z,0
2016-06-07T03:45:07.275Z,0
2016-06-07T03:46:07.263Z,0
2016-06-07T03:47:07.250Z,0
2016-06-07T03:48:07.237Z,0
2016-06-07T03:49:07.224Z,0
2016-06-07T03:50:07.211Z,0
2016-06-07T03:51:07.089Z,0
2016-06-07T03:52:07.013Z,0
2016-06-07T03:53:07.157Z,0
2016-06-07T03:54:07.144Z,0
2016-06-07T03:55:07.131Z,0
2016-06-07T03:56:07.102Z,0
2016-06-07T03:57:07.089Z,0
2016-06-07T03:58:07.076Z,0
2016-06-07T03:59:07.063Z,0
2016-06-07T04:00:07.051Z,0
2016-06-07T04:01:07.023Z,0
2016-06-07T04:02:07.009Z,0
2016-06-07T04:03:06.996Z,0
2016-06-07T04:04:06.983Z,0
2016-06-07T04:05:06.954Z,0
2016-06-07T04:06:06.957Z,0
2016-06-07T04:07:07.304Z,0
2016-06-07T04:08:06.931Z,0
2016-06-07T04:09:06.903Z,0
2016-06-07T04:10:06.890Z,0
2016-06-07T04:11:06.877Z,0
2016-06-07T04:12:06.848Z,0
2016-06-07T04:13:06.836Z,0
2016-06-07T04:14:06.823Z,0
2016-06-07T04:15:06.810Z,0
2016-06-07T04:16:06.780Z,0
2016-06-07T04:17:06.784Z,0
2016-06-07T04:18:06.756Z,0
2016-06-07T04:19:06.742Z,0
2016-06-07T04:20:06.713Z,0
2016-06-07T04:21:06.701Z,0
2016-06-07T04:22:07.157Z,0
2016-06-07T04:23:06.675Z,0
2016-06-07T04:24:06.522Z,0
2016-06-07T04:25:06.649Z,0
2016-06-07T04:26:06.635Z,0
2016-06-07T04:27:06.468Z,0
2016-06-07T04:28:06.595Z,0
2016-06-07T04:29:06.582Z,0
2016-06-07T04:30:06.568Z,0
2016-06-07T04:31:06.557Z,0
2016-06-07T04:32:06.527Z,0
2016-06-07T04:33:06.529Z,0
2016-06-07T04:34:06.502Z,0
2016-06-07T04:35:06.488Z,0
2016-06-07T04:36:06.492Z,0
2016-06-07T04:37:06.650Z,0
2016-06-07T04:38:06.465Z,0
2016-06-07T04:39:06.420Z,0
2016-06-07T04:40:06.409Z,0
2016-06-07T04:41:06.395Z,0
2016-06-07T04:42:06.367Z,0
2016-06-07T04:43:06.353Z,0
2016-06-07T04:44:06.342Z,0
2016-06-07T04:45:06.327Z,0
2016-06-07T04:46:06.314Z,0
2016-06-07T04:47:06.302Z,0
2016-06-07T04:48:06.274Z,4
2016-06-07T04:49:06.261Z,4
2016-06-07T04:50:06.247Z,0
2016-06-07T04:51:06.219Z,4
2016-06-07T04:52:07.737Z,4
2016-06-07T04:53:06.896Z,4
2016-06-07T04:54:06.196Z,8
2016-06-07T04:55:06.168Z,8
2016-06-07T04:56:06.154Z,8
2016-06-07T04:57:06.126Z,12
2016-06-07T04:58:06.113Z,12
2016-06-07T04:59:06.100Z,20
2016-06-07T05:00:06.087Z,20
2016-06-07T05:01:06.074Z,24
2016-06-07T05:02:06.061Z,32
2016-06-07T05:03:06.032Z,36
2016-06-07T05:04:06.035Z,40
2016-06-07T05:05:06.007Z,48
2016-06-07T05:06:05.994Z,56
2016-06-07T05:07:06.465Z,64
2016-06-07T05:08:06.749Z,72
2016-06-07T05:09:05.939Z,84
2016-06-07T05:10:05.926Z,96
2016-06-07T05:11:05.898Z,108
2016-06-07T05:12:05.744Z,116
2016-06-07T05:13:05.872Z,128
2016-06-07T05:14:05.719Z,144
2016-06-07T05:15:05.831Z,156
2016-06-07T05:16:05.833Z,172
2016-06-07T05:17:05.804Z,188
2016-06-07T05:18:05.792Z,204
2016-06-07T05:19:05.778Z,220
2016-06-07T05:20:05.766Z,236
2016-06-07T05:21:05.737Z,256
2016-06-07T05:22:07.397Z,276
2016-06-07T05:23:05.711Z,292
2016-06-07T05:24:05.699Z,308
2016-06-07T05:25:05.529Z,328
2016-06-07T05:26:05.657Z,348
2016-06-07T05:27:05.644Z,368
2016-06-07T05:28:05.632Z,384
2016-06-07T05:29:05.618Z,404
2016-06-07T05:30:05.604Z,424
2016-06-07T05:31:05.592Z,444
2016-06-07T05:32:05.563Z,468
2016-06-07T05:33:05.395Z,488
2016-06-07T05:34:05.366Z,508
2016-06-07T05:35:05.213Z,532
2016-06-07T05:36:05.496Z,548
2016-06-07T05:37:06.545Z,568
2016-06-07T05:38:05.471Z,584
2016-06-07T05:39:05.457Z,604
2016-06-07T05:40:05.507Z,620
2016-06-07T05:41:05.275Z,636
2016-06-07T05:42:05.497Z,652
2016-06-07T05:43:05.234Z,668
2016-06-07T05:44:05.378Z,688
2016-06-07T05:45:06.239Z,700
2016-06-07T05:46:05.336Z,720
2016-06-07T05:47:05.322Z,728
2016-06-07T05:48:05.310Z,744
2016-06-07T05:49:05.297Z,760
2016-06-07T05:50:05.283Z,776
2016-06-07T05:51:05.271Z,788
2016-06-07T05:52:05.867Z,804
2016-06-07T05:53:05.227Z,820
2016-06-07T05:54:05.214Z,832
2016-06-07T05:55:05.202Z,844
2016-06-07T05:56:05.172Z,860
2016-06-07T05:57:05.160Z,876
2016-06-07T05:58:05.147Z,884
2016-06-07T05:59:05.134Z,900
2016-06-07T06:00:05.105Z,916
2016-06-07T06:01:05.107Z,924
2016-06-07T06:02:04.783Z,940
2016-06-07T06:03:05.066Z,952
2016-06-07T06:04:05.085Z,964
2016-06-07T06:05:05.056Z,976
2016-06-07T06:06:05.012Z,988
2016-06-07T06:07:04.999Z,1000
2016-06-07T06:08:05.565Z,1016
2016-06-07T06:09:04.957Z,1024
2016-06-07T06:10:04.960Z,1036
2016-06-07T06:11:04.932Z,1048
2016-06-07T06:12:04.918Z,1056
2016-06-07T06:13:04.906Z,1068
2016-06-07T06:14:04.737Z,1080
2016-06-07T06:15:04.895Z,1092
2016-06-07T06:16:04.851Z,1104
2016-06-07T06:17:04.838Z,1112
2016-06-07T06:18:04.826Z,1120
2016-06-07T06:19:04.797Z,1132
2016-06-07T06:20:04.800Z,1140
2016-06-07T06:21:04.614Z,1144
2016-06-07T06:22:04.774Z,1144
2016-06-07T06:23:04.761Z,1148
2016-06-07T06:24:04.592Z,1152
2016-06-07T06:25:04.563Z,1156
2016-06-07T06:26:04.691Z,1160
2016-06-07T06:27:04.694Z,1164
2016-06-07T06:28:04.680Z,1164
2016-06-07T06:29:04.652Z,1168
2016-06-07T06:30:04.638Z,1176
2016-06-07T06:31:04.627Z,1184
2016-06-07T06:32:04.597Z,1192
2016-06-07T06:33:04.599Z,1196
2016-06-07T06:34:04.572Z,1204
2016-06-07T06:35:04.559Z,1212
2016-06-07T06:36:04.529Z,1220
2016-06-07T06:37:05.735Z,1224
2016-06-07T06:38:04.363Z,1236
2016-06-07T06:39:04.507Z,1244
2016-06-07T06:40:04.493Z,1252
2016-06-07T06:41:04.465Z,1260
2016-06-07T06:42:04.436Z,1272
2016-06-07T06:43:04.424Z,1284
2016-06-07T06:44:04.412Z,1296
2016-06-07T06:45:04.398Z,1308
2016-06-07T06:46:04.369Z,1320
2016-06-07T06:47:04.388Z,1332
2016-06-07T06:48:04.203Z,1344
2016-06-07T06:49:04.330Z,1360
2016-06-07T06:50:04.334Z,1372
2016-06-07T06:51:04.305Z,1388
2016-06-07T06:52:04.401Z,1400
2016-06-07T06:53:05.028Z,1416
2016-06-07T06:54:04.267Z,1432
2016-06-07T06:55:04.238Z,1448
2016-06-07T06:56:04.068Z,1464
2016-06-07T06:57:04.212Z,1480
2016-06-07T06:58:04.199Z,1496
2016-06-07T06:59:04.170Z,1508
2016-06-07T07:00:04.172Z,1528
2016-06-07T07:01:04.003Z,1548
2016-06-07T07:02:04.132Z,1564
2016-06-07T07:03:04.103Z,1576
2016-06-07T07:04:04.090Z,1592
2016-06-07T07:05:04.077Z,1608
2016-06-07T07:06:04.080Z,1624
2016-06-07T07:07:04.645Z,1640
2016-06-07T07:08:05.882Z,1656
2016-06-07T07:09:04.025Z,1668
2016-06-07T07:10:03.996Z,1684
2016-06-07T07:11:03.999Z,1700
2016-06-07T07:12:04.283Z,1712
2016-06-07T07:13:03.957Z,1732
2016-06-07T07:14:03.929Z,1740
2016-06-07T07:15:03.932Z,1756
2016-06-07T07:16:03.919Z,1764
2016-06-07T07:17:03.906Z,1776
2016-06-07T07:18:03.893Z,1788
2016-06-07T07:19:03.864Z,1796
2016-06-07T07:20:03.695Z,1804
2016-06-07T07:21:03.853Z,1816
2016-06-07T07:22:04.154Z,1824
2016-06-07T07:23:04.703Z,1836
2016-06-07T07:24:03.783Z,1844
2016-06-07T07:25:03.772Z,1852
2016-06-07T07:26:03.774Z,1864
2016-06-07T07:27:03.745Z,1872
2016-06-07T07:28:03.732Z,1884
2016-06-07T07:29:03.704Z,1892
2016-06-07T07:30:03.707Z,1900
2016-06-07T07:31:03.678Z,1904
2016-06-07T07:32:03.665Z,1912
2016-06-07T07:33:03.652Z,1916
2016-06-07T07:34:03.639Z,1928
2016-06-07T07:35:03.783Z,1936
2016-06-07T07:36:03.598Z,1944
2016-06-07T07:37:03.444Z,1956
2016-06-07T07:38:03.307Z,1964
2016-06-07T07:39:03.559Z,1976
2016-06-07T07:40:03.545Z,1984
2016-06-07T07:41:03.517Z,2000
2016-06-07T07:42:03.365Z,2008
2016-06-07T07:43:03.492Z,2024
2016-06-07T07:44:03.479Z,2032
2016-06-07T07:45:03.465Z,2044
2016-06-07T07:46:03.468Z,2056
2016-06-07T07:47:03.439Z,2068
2016-06-07T07:48:03.427Z,2076
2016-06-07T07:49:03.398Z,2088
2016-06-07T07:50:03.385Z,2100
2016-06-07T07:51:03.372Z,2116
2016-06-07T07:52:05.437Z,2120
2016-06-07T07:53:03.894Z,2136
2016-06-07T07:54:03.333Z,2148
2016-06-07T07:55:03.320Z,2160
2016-06-07T07:56:03.292Z,2176
2016-06-07T07:57:03.279Z,2188
2016-06-07T07:58:03.282Z,2200
2016-06-07T07:59:03.253Z,2212
2016-06-07T08:00:03.241Z,2228
2016-06-07T08:01:03.211Z,2244
2016-06-07T08:02:03.199Z,2252
2016-06-07T08:03:03.186Z,2264
2016-06-07T08:04:03.188Z,2280
2016-06-07T08:05:03.160Z,2292
2016-06-07T08:06:03.131Z,2300
2016-06-07T08:07:03.196Z,2320
2016-06-07T08:08:03.794Z,2328
2016-06-07T08:09:03.108Z,2340
2016-06-07T08:10:03.080Z,2360
2016-06-07T08:11:03.067Z,2364
2016-06-07T08:12:03.054Z,2376
2016-06-07T08:13:03.041Z,2400
2016-06-07T08:14:03.028Z,2416
2016-06-07T08:15:03.015Z,2424
2016-06-07T08:16:03.001Z,2448
2016-06-07T08:17:02.973Z,2464
2016-06-07T08:18:02.961Z,2468
2016-06-07T08:19:02.979Z,2476
2016-06-07T08:20:02.951Z,2496
2016-06-07T08:21:02.922Z,2516
2016-06-07T08:22:02.611Z,2528
2016-06-07T08:23:03.411Z,2536
2016-06-07T08:24:02.868Z,2552
2016-06-07T08:25:02.870Z,2568
2016-06-07T08:26:02.841Z,2580
2016-06-07T08:27:02.844Z,2592
2016-06-07T08:28:02.816Z,2604
2016-06-07T08:29:02.646Z,2616
2016-06-07T08:30:02.790Z,2628
2016-06-07T08:31:02.761Z,2644
2016-06-07T08:32:02.749Z,2652
2016-06-07T08:33:02.751Z,2664
2016-06-07T08:34:02.738Z,2668
2016-06-07T08:35:02.818Z,2680
2016-06-07T08:36:02.712Z,2684
2016-06-07T08:37:02.684Z,2700
2016-06-07T08:38:02.999Z,2708
2016-06-07T08:39:02.642Z,2716
2016-06-07T08:40:02.645Z,2728
2016-06-07T08:41:02.631Z,2740
2016-06-07T08:42:02.619Z,2756
2016-06-07T08:43:02.590Z,2768
2016-06-07T08:44:02.452Z,2776
2016-06-07T08:45:02.564Z,2788
2016-06-07T08:46:02.551Z,2800
2016-06-07T08:47:02.257Z,2816
2016-06-07T08:48:02.526Z,2832
2016-06-07T08:49:02.512Z,2844
2016-06-07T08:50:02.484Z,2856
2016-06-07T08:51:02.486Z,2872
2016-06-07T08:52:02.490Z,2888
2016-06-07T08:53:02.742Z,2904
2016-06-07T08:54:02.479Z,2912
2016-06-07T08:55:02.419Z,2928
2016-06-07T08:56:02.422Z,2944
2016-06-07T08:57:03.519Z,2952
2016-06-07T08:58:02.412Z,2964
2016-06-07T08:59:02.383Z,2976
2016-06-07T09:00:02.464Z,2988
2016-06-07T09:01:02.577Z,3004
2016-06-07T09:02:02.235Z,3020
2016-06-07T09:03:03.144Z,3028
2016-06-07T09:04:02.288Z,3040
2016-06-07T09:05:02.274Z,3040
2016-06-07T09:06:02.261Z,3056
2016-06-07T09:07:02.093Z,3068
2016-06-07T09:08:02.251Z,3076
2016-06-07T09:09:02.082Z,3084
2016-06-07T09:10:02.210Z,3100
2016-06-07T09:11:02.181Z,3112
2016-06-07T09:12:02.185Z,3128
2016-06-07T09:13:02.171Z,3140
2016-06-07T09:14:02.158Z,3148
2016-06-07T09:15:02.145Z,3156
2016-06-07T09:16:02.117Z,3168
2016-06-07T09:17:01.948Z,3184
2016-06-07T09:18:02.090Z,3192
2016-06-07T09:19:02.078Z,3200
2016-06-07T09:20:02.065Z,3212
2016-06-07T09:21:02.036Z,3228
2016-06-07T09:22:02.024Z,3240
2016-06-07T09:23:02.636Z,3248
2016-06-07T09:24:01.872Z,3264
2016-06-07T09:25:01.984Z,3280
2016-06-07T09:26:01.987Z,3300
2016-06-07T09:27:01.959Z,3308
2016-06-07T09:28:01.946Z,3344
2016-06-07T09:29:01.933Z,3360
2016-06-07T09:30:02.075Z,3380
2016-06-07T09:31:01.891Z,3396
2016-06-07T09:32:01.879Z,3416
2016-06-07T09:33:01.881Z,3432
2016-06-07T09:34:02.384Z,3444
2016-06-07T09:35:01.856Z,3452
2016-06-07T09:36:01.827Z,3468
2016-06-07T09:37:01.813Z,3488
2016-06-07T09:38:01.863Z,3500
2016-06-07T09:39:02.163Z,3520
2016-06-07T09:40:01.774Z,3540
2016-06-07T09:41:01.777Z,3540
2016-06-07T09:42:01.765Z,3560
2016-06-07T09:43:01.721Z,3580
2016-06-07T09:44:01.707Z,3600
2016-06-07T09:45:01.695Z,3624
2016-06-07T09:46:01.681Z,3644
2016-06-07T09:47:01.669Z,3668
2016-06-07T09:48:01.546Z,3688
2016-06-07T09:49:01.674Z,3712
2016-06-07T09:50:01.630Z,3736
2016-06-07T09:51:01.617Z,3756
2016-06-07T09:52:01.604Z,3780
2016-06-07T09:53:02.513Z,3812
2016-06-07T09:54:01.719Z,3832
2016-06-07T09:55:01.597Z,3856
2016-06-07T09:56:01.568Z,3900
2016-06-07T09:57:01.602Z,3940
2016-06-07T09:58:01.542Z,3968
2016-06-07T09:59:01.576Z,4004
2016-06-07T10:00:01.531Z,4036
2016-06-07T10:01:01.566Z,4056
2016-06-07T10:02:01.553Z,4084
2016-06-07T10:03:01.493Z,4128
2016-06-07T10:04:01.496Z,4160
2016-06-07T10:05:01.452Z,4200
2016-06-07T10:06:01.439Z,4236
2016-06-07T10:07:01.457Z,4276
2016-06-07T10:08:03.335Z,4336
2016-06-07T10:09:02.635Z,4376
2016-06-07T10:10:01.388Z,4420
2016-06-07T10:11:01.343Z,4484
2016-06-07T10:12:01.345Z,4532
2016-06-07T10:13:01.316Z,4580
2016-06-07T10:14:01.304Z,4636
2016-06-07T10:15:01.307Z,4704
2016-06-07T10:16:01.279Z,4764
2016-06-07T10:17:01.265Z,4836
2016-06-07T10:18:01.268Z,4912
2016-06-07T10:19:01.240Z,4980
2016-06-07T10:20:01.259Z,5056
2016-06-07T10:21:01.214Z,5144
2016-06-07T10:22:01.201Z,5260
2016-06-07T10:23:02.142Z,5348
2016-06-07T10:24:01.051Z,5448
2016-06-07T10:25:01.162Z,5564
2016-06-07T10:26:01.150Z,5672
2016-06-07T10:27:01.152Z,5772
2016-06-07T10:28:01.124Z,5884
2016-06-07T10:29:01.110Z,5988
2016-06-07T10:30:14.129Z,6108
2016-06-07T10:31:01.100Z,6180
2016-06-07T10:32:01.088Z,6288
2016-06-07T10:33:01.075Z,6352
2016-06-07T10:34:01.062Z,6384
2016-06-07T10:35:00.893Z,6432
2016-06-07T10:36:01.036Z,6448
2016-06-07T10:37:01.039Z,6472
2016-06-07T10:38:01.713Z,6476
2016-06-07T10:39:00.873Z,6488
2016-06-07T10:40:00.984Z,6512
2016-06-07T10:41:00.972Z,6524
2016-06-07T10:42:00.943Z,6528
2016-06-07T10:43:00.961Z,6548
2016-06-07T10:44:00.948Z,6564
2016-06-07T10:45:00.920Z,6568
2016-06-07T10:46:01.547Z,6572
2016-06-07T10:47:00.894Z,6572
2016-06-07T10:48:00.880Z,6572
2016-06-07T10:49:00.853Z,6588
2016-06-07T10:50:00.839Z,6600
2016-06-07T10:51:00.827Z,6592
2016-06-07T10:52:00.829Z,6584
2016-06-07T10:53:00.754Z,6592
2016-06-07T10:54:01.396Z,6576
2016-06-07T10:55:00.803Z,6568
2016-06-07T10:56:00.805Z,6564
2016-06-07T10:57:00.807Z,6556
2016-06-07T10:58:00.809Z,6560
2016-06-07T10:59:00.811Z,6556
2016-06-07T11:00:00.806Z,6536
2016-06-07T11:01:01.922Z,6528
2016-06-07T11:02:00.805Z,6500
2016-06-07T11:03:00.798Z,6476
2016-06-07T11:04:00.806Z,6444
2016-06-07T11:05:00.765Z,6428
2016-06-07T11:06:00.784Z,6408
2016-06-07T11:07:00.758Z,6396
2016-06-07T11:08:01.450Z,6384
2016-06-07T11:09:01.518Z,6372
2016-06-07T11:10:00.724Z,6352
2016-06-07T11:11:00.571Z,6328
2016-06-07T11:12:00.731Z,6312
2016-06-07T11:13:00.548Z,6296
2016-06-07T11:14:00.753Z,6284
2016-06-07T11:15:00.897Z,6260
2016-06-07T11:16:00.666Z,6240
2016-06-07T11:17:00.669Z,6216
2016-06-07T11:18:00.656Z,6196
2016-06-07T11:19:00.597Z,6152
2016-06-07T11:20:00.647Z,6132
2016-06-07T11:21:00.603Z,6128
2016-06-07T11:22:00.589Z,6124
2016-06-07T11:23:00.592Z,6112
2016-06-07T11:24:00.266Z,6100
2016-06-07T11:25:00.582Z,6056
2016-06-07T11:26:00.616Z,6032
2016-06-07T11:27:00.540Z,6036
2016-06-07T11:28:00.544Z,6088
2016-06-07T11:29:00.530Z,6344
2016-06-07T11:30:00.361Z,28032
2016-06-07T11:31:00.504Z,78368
2016-06-07T11:32:00.586Z,110880
2016-06-07T11:33:00.479Z,111328
2016-06-07T11:34:00.482Z,110464
2016-06-07T11:35:00.499Z,108608
2016-06-07T11:36:00.471Z,110272
2016-06-07T11:37:00.457Z,114592
2016-06-07T11:38:00.945Z,113664
2016-06-07T11:39:00.776Z,113472
2016-06-07T11:40:00.465Z,116928
2016-06-07T11:41:00.453Z,112704
2016-06-07T11:42:00.440Z,113664
2016-06-07T11:43:00.427Z,111520
2016-06-07T11:44:00.477Z,111488
2016-06-07T11:45:00.292Z,113696
2016-06-07T11:46:00.264Z,111616
2016-06-07T11:47:00.469Z,112800
2016-06-07T11:48:00.425Z,113888
2016-06-07T11:49:00.740Z,112864
2016-06-07T11:50:00.446Z,113056
2016-06-07T11:51:00.481Z,114464
2016-06-07T11:52:00.420Z,112384
2016-06-07T11:53:00.423Z,112032
2016-06-07T11:54:01.175Z,111616
2016-06-07T11:55:00.428Z,112608
2016-06-07T11:56:00.415Z,114176
2016-06-07T11:57:00.262Z,112704
2016-06-07T11:58:00.452Z,113824
2016-06-07T11:59:00.439Z,113280
2016-06-07T12:00:00.270Z,113632
2016-06-07T12:01:00.429Z,109856
2016-06-07T12:02:00.307Z,93504
2016-06-07T12:03:00.480Z,65120
2016-06-07T12:04:00.452Z,36704
2016-06-07T12:05:00.455Z,20096
2016-06-07T12:06:00.458Z,16224
2016-06-07T12:07:00.446Z,15036
2016-06-07T12:08:01.619Z,14632
2016-06-07T12:09:00.904Z,14340
2016-06-07T12:10:00.765Z,14184
2016-06-07T12:11:00.456Z,14028
2016-06-07T12:12:00.458Z,13800
2016-06-07T12:13:00.461Z,13652
2016-06-07T12:14:00.464Z,13364
2016-06-07T12:15:00.623Z,13212
2016-06-07T12:16:00.470Z,13176
2016-06-07T12:17:00.300Z,13180
2016-06-07T12:18:00.537Z,13128
2016-06-07T12:19:00.509Z,13032
2016-06-07T12:20:00.480Z,13024
2016-06-07T12:21:00.483Z,13100
2016-06-07T12:22:00.486Z,13312
2016-06-07T12:23:00.989Z,15164
2016-06-07T12:24:00.553Z,17888
2016-06-07T12:25:00.494Z,16792
2016-06-07T12:26:00.372Z,15372
2016-06-07T12:27:00.530Z,14924
2016-06-07T12:28:00.908Z,14728
2016-06-07T12:29:00.504Z,14568
2016-06-07T12:30:00.507Z,14468
2016-06-07T12:31:00.541Z,14392
2016-06-07T12:32:00.528Z,14056
2016-06-07T12:33:00.561Z,13688
2016-06-07T12:34:00.611Z,13636
2016-06-07T12:35:00.535Z,13748
2016-06-07T12:36:00.538Z,13892
2016-06-07T12:37:00.557Z,13984
2016-06-07T12:38:00.387Z,14036
2016-06-07T12:39:00.562Z,14164
2016-06-07T12:40:00.549Z,14328
2016-06-07T12:41:00.552Z,14532
2016-06-07T12:42:00.571Z,14804
2016-06-07T12:43:00.432Z,15024
2016-06-07T12:44:00.576Z,15272
2016-06-07T12:45:00.578Z,15484
2016-06-07T12:46:00.581Z,15784
2016-06-07T12:47:00.584Z,16160
2016-06-07T12:48:00.602Z,16480
2016-06-07T12:49:00.590Z,17568
2016-06-07T12:50:04.639Z,21792
2016-06-07T12:51:04.532Z,31456
2016-06-07T12:52:00.613Z,48736
2016-06-07T12:53:00.834Z,74784
2016-06-07T12:54:00.493Z,97920
2016-06-07T12:55:00.620Z,105632
2016-06-07T12:56:01.545Z,106944
2016-06-07T12:57:00.658Z,107136
2016-06-07T12:58:00.786Z,109920
2016-06-07T12:59:00.647Z,109280
2016-06-07T13:00:00.806Z,109280
2016-06-07T13:01:00.652Z,107520
2016-06-07T13:02:00.921Z,101760
2016-06-07T13:03:00.658Z,102816
2016-06-07T13:04:00.645Z,107040
2016-06-07T13:05:00.680Z,107040
2016-06-07T13:06:00.729Z,103072
2016-06-07T13:07:00.699Z,109088
2016-06-07T13:08:00.688Z,108512
2016-06-07T13:09:01.455Z,106112
2016-06-07T13:10:00.693Z,109408
2016-06-07T13:11:00.710Z,110624
2016-06-07T13:12:01.135Z,111872
2016-06-07T13:13:00.701Z,111808
2016-06-07T13:14:00.562Z,105440
2016-06-07T13:15:00.706Z,103456
2016-06-07T13:16:00.709Z,108608
2016-06-07T13:17:01.039Z,114432
2016-06-07T13:18:00.714Z,108192
2016-06-07T13:19:00.717Z,106048
2016-06-07T13:20:00.720Z,112416
2016-06-07T13:21:00.737Z,109568
2016-06-07T13:22:00.740Z,106464
2016-06-07T13:23:00.790Z,108864
2016-06-07T13:24:02.105Z,114464
2016-06-07T13:25:00.748Z,112896
2016-06-07T13:26:00.594Z,109184
2016-06-07T13:27:00.754Z,107424
2016-06-07T13:28:00.757Z,110400
2016-06-07T13:29:00.775Z,113536
2016-06-07T13:30:00.809Z,112128
2016-06-07T13:31:00.608Z,106784
2016-06-07T13:32:00.799Z,110336
2016-06-07T13:33:00.785Z,116608
2016-06-07T13:34:00.944Z,113344
2016-06-07T13:35:00.291Z,109376
2016-06-07T13:36:00.794Z,109248
2016-06-07T13:37:00.797Z,112576
2016-06-07T13:38:00.799Z,113184
2016-06-07T13:39:01.224Z,112160
2016-06-07T13:40:00.867Z,112768
2016-06-07T13:41:00.823Z,110240
2016-06-07T13:42:00.825Z,105056
2016-06-07T13:43:00.813Z,107200